Time;durP1;ratioP1;P1;durP2;ratioP2;P2;SDS_P1;SDS_P2;PMS_P1;PMS_P2;Temp;Humidity;BMP_temperature;BMP_pressure;BME280_temperature;BME280_humidity;BME280_pressure;Samples;Min_cycle;Max_cycle;Signal;HPM_P1;HPM_P2
2023/01/11 00:00:56;;;;;;;7.07;5.07;;;;;;;;;;5089291;28;20048;-70
2023/01/11 00:03:22;;;;;;;7.13;4.85;;;;;;;;;;5114557;28;20067;-70
2023/01/11 00:05:48;;;;;;;6.38;4.70;;;;;;;;;;5116761;28;20057;-70
2023/01/11 00:08:14;;;;;;;6.78;4.65;;;;;;;;;;5116904;28;20119;-71
2023/01/11 00:10:41;;;;;;;6.32;4.43;;;;;;;;;;5116472;28;20039;-71
2023/01/11 00:13:07;;;;;;;7.00;4.90;;;;;;;;;;5114438;28;20150;-71
2023/01/11 00:15:35;;;;;;;6.75;5.20;;;;;;;;;;5132061;27;20096;-71
2023/01/11 00:18:01;;;;;;;6.75;5.03;;;;;;;;;;5137160;27;20051;-70
2023/01/11 00:20:28;;;;;;;6.43;5.07;;;;;;;;;;5137474;27;20054;-71
2023/01/11 00:22:54;;;;;;;7.45;5.25;;;;;;;;;;5118934;27;20044;-71
2023/01/11 00:25:20;;;;;;;6.68;4.90;;;;;;;;;;5116692;28;20048;-72
2023/01/11 00:27:48;;;;;;;7.57;4.60;;;;;;;;;;5116178;27;20489;-71
2023/01/11 00:30:14;;;;;;;6.93;4.35;;;;;;;;;;5103623;28;20443;-71
2023/01/11 00:32:40;;;;;;;5.95;4.43;;;;;;;;;;5115886;28;20074;-72
2023/01/11 00:35:07;;;;;;;8.40;4.97;;;;;;;;;;5116319;28;20116;-71
2023/01/11 00:37:33;;;;;;;7.53;4.90;;;;;;;;;;5117749;28;20115;-72
2023/01/11 00:39:59;;;;;;;6.85;4.40;;;;;;;;;;5113394;28;20044;-71
2023/01/11 00:48:03;;;;;;;6.90;4.43;;;;;;;;;;5096942;28;20048;-74
2023/01/11 00:50:36;;;;;;;19.48;3.80;;;;;;;;;;5096607;28;20478;-74
2023/01/11 00:53:03;;;;;;;7.07;4.70;;;;;;;;;;5112389;28;20044;-72
2023/01/11 00:55:30;;;;;;;6.60;4.13;;;;;;;;;;5114990;28;20550;-71
2023/01/11 00:57:57;;;;;;;6.85;4.15;;;;;;;;;;5115888;28;20122;-72
2023/01/11 01:00:23;;;;;;;7.13;4.65;;;;;;;;;;5115928;28;20065;-71
2023/01/11 01:02:49;;;;;;;6.43;4.18;;;;;;;;;;5103641;28;20398;-71
2023/01/11 01:05:15;;;;;;;6.60;4.25;;;;;;;;;;5103750;28;20531;-71
2023/01/11 01:07:42;;;;;;;6.13;4.72;;;;;;;;;;5110153;27;20039;-70
2023/01/11 01:10:08;;;;;;;6.95;4.53;;;;;;;;;;5112860;28;20074;-72
2023/01/11 01:15:20;;;;;;;6.72;4.65;;;;;;;;;;5099713;27;20504;-71
2023/01/11 01:17:46;;;;;;;7.97;4.53;;;;;;;;;;5107815;28;20398;-71
2023/01/11 01:20:12;;;;;;;6.97;4.00;;;;;;;;;;5107887;28;20062;-71
2023/01/11 01:22:38;;;;;;;6.53;4.20;;;;;;;;;;5112228;28;20122;-71
2023/01/11 01:25:05;;;;;;;7.45;4.20;;;;;;;;;;5112676;28;20093;-72
2023/01/11 01:27:31;;;;;;;7.18;4.15;;;;;;;;;;5107139;28;20038;-72
2023/01/11 01:29:57;;;;;;;7.22;4.47;;;;;;;;;;5097161;28;20485;-71
2023/01/11 01:32:23;;;;;;;7.65;4.32;;;;;;;;;;5112796;28;20043;-71
2023/01/11 01:34:49;;;;;;;6.47;4.50;;;;;;;;;;5098694;28;20052;-72
2023/01/11 01:37:15;;;;;;;6.80;4.63;;;;;;;;;;5113085;28;20097;-71
2023/01/11 01:39:41;;;;;;;8.00;4.53;;;;;;;;;;5114626;28;20039;-71
2023/01/11 01:42:18;;;;;;;7.28;4.75;;;;;;;;;;5102209;28;20036;-71
2023/01/11 01:44:52;;;;;;;6.97;4.57;;;;;;;;;;5126251;27;20039;-71
2023/01/11 01:47:20;;;;;;;7.55;5.00;;;;;;;;;;5135591;27;20051;-71
2023/01/11 01:49:47;;;;;;;7.90;4.82;;;;;;;;;;5135364;27;20043;-72
2023/01/11 01:52:13;;;;;;;7.43;5.18;;;;;;;;;;5125557;27;20554;-71
2023/01/11 01:54:41;;;;;;;9.30;5.13;;;;;;;;;;5098083;28;20047;-70
2023/01/11 01:57:15;;;;;;;8.45;4.75;;;;;;;;;;5099379;27;20047;-71
2023/01/11 01:59:41;;;;;;;6.45;4.22;;;;;;;;;;5114746;28;20047;-71
2023/01/11 02:02:07;;;;;;;6.55;5.10;;;;;;;;;;5111739;28;20050;-71
2023/01/11 02:04:36;;;;;;;7.63;4.95;;;;;;;;;;5114199;28;20429;-71
2023/01/11 02:07:15;;;;;;;7.57;4.85;;;;;;;;;;5114660;28;20047;-71
2023/01/11 02:09:44;;;;;;;6.70;4.55;;;;;;;;;;5111213;28;20120;-71
2023/01/11 02:12:11;;;;;;;7.53;5.03;;;;;;;;;;5100540;28;20040;-71
2023/01/11 02:14:38;;;;;;;8.13;5.20;;;;;;;;;;5123022;27;20505;-70
2023/01/11 02:17:04;;;;;;;7.22;4.63;;;;;;;;;;5102537;28;20035;-71
2023/01/11 02:19:44;;;;;;;7.82;5.25;;;;;;;;;;5112021;28;20051;-71
2023/01/11 02:22:13;;;;;;;7.68;4.97;;;;;;;;;;5112867;28;20032;-71
2023/01/11 02:24:40;;;;;;;8.25;4.93;;;;;;;;;;5112725;28;20044;-72
2023/01/11 02:27:18;;;;;;;6.32;4.30;;;;;;;;;;5110182;28;20387;-71
2023/01/11 02:29:47;;;;;;;9.45;5.82;;;;;;;;;;5093623;28;20101;-71
2023/01/11 02:32:44;;;;;;;7.13;5.20;;;;;;;;;;5111693;27;20040;-71
2023/01/11 02:35:19;;;;;;;7.35;4.97;;;;;;;;;;5122255;27;20039;-71
2023/01/11 02:37:53;;;;;;;7.85;5.10;;;;;;;;;;5109379;27;20044;-71
2023/01/11 02:40:38;;;;;;;8.82;5.50;;;;;;;;;;5113996;28;20100;-71
2023/01/11 02:46:12;;;;;;;7.55;5.15;;;;;;;;;;5110125;28;20052;-71
2023/01/11 02:49:02;;;;;;;8.40;4.93;;;;;;;;;;5112372;28;20064;-71
2023/01/11 02:51:28;;;;;;;7.25;5.13;;;;;;;;;;5109150;28;20051;-70
2023/01/11 02:53:56;;;;;;;8.30;5.03;;;;;;;;;;5106154;28;20153;-71
2023/01/11 02:56:27;;;;;;;8.07;4.95;;;;;;;;;;5113437;28;20505;-71
2023/01/11 02:58:54;;;;;;;7.60;4.53;;;;;;;;;;5113731;28;20400;-71
2023/01/11 03:01:21;;;;;;;7.95;4.68;;;;;;;;;;5112548;28;20465;-71
2023/01/11 03:03:49;;;;;;;6.18;4.13;;;;;;;;;;5112620;27;20410;-72
2023/01/11 03:06:23;;;;;;;8.48;4.57;;;;;;;;;;5134129;27;20043;-71
2023/01/11 03:09:00;;;;;;;8.25;4.35;;;;;;;;;;5134126;27;20043;-71
2023/01/11 03:14:28;;;;;;;7.05;4.18;;;;;;;;;;5113548;28;20051;-71
2023/01/11 03:16:57;;;;;;;7.83;4.50;;;;;;;;;;5113574;28;20050;-71
2023/01/11 03:19:23;;;;;;;7.53;4.07;;;;;;;;;;5112209;28;20051;-71
2023/01/11 03:21:58;;;;;;;6.68;3.58;;;;;;;;;;5099787;28;20136;-71
2023/01/11 03:24:39;;;;;;;6.72;4.22;;;;;;;;;;5099266;28;20075;-72
2023/01/11 03:27:10;;;;;;;8.77;3.58;;;;;;;;;;5104842;28;20047;-71
2023/01/11 03:29:36;;;;;;;7.05;3.60;;;;;;;;;;5117879;27;20374;-71
2023/01/11 03:32:08;;;;;;;6.93;3.70;;;;;;;;;;5115112;27;20039;-71
2023/01/11 03:34:37;;;;;;;6.05;3.30;;;;;;;;;;5118582;27;20125;-71
2023/01/11 03:37:17;;;;;;;6.28;3.65;;;;;;;;;;5119343;28;20044;-71
2023/01/11 03:39:49;;;;;;;7.30;3.33;;;;;;;;;;5120042;27;20455;-70
2023/01/11 03:42:17;;;;;;;5.68;3.70;;;;;;;;;;5118190;27;20039;-71
2023/01/11 03:44:44;;;;;;;6.25;3.63;;;;;;;;;;5120285;27;20044;-71
2023/01/11 03:47:12;;;;;;;6.05;3.20;;;;;;;;;;5120118;27;20039;-71
2023/01/11 03:49:44;;;;;;;6.22;3.15;;;;;;;;;;5118892;28;20046;-71
2023/01/11 03:52:12;;;;;;;6.45;3.33;;;;;;;;;;5100439;28;20043;-71
2023/01/11 03:54:38;;;;;;;5.82;3.15;;;;;;;;;;5112870;28;20055;-71
2023/01/11 03:57:10;;;;;;;6.55;3.10;;;;;;;;;;5111829;28;20043;-71
2023/01/11 03:59:38;;;;;;;5.32;2.80;;;;;;;;;;5118843;27;20050;-71
2023/01/11 04:02:04;;;;;;;4.80;2.83;;;;;;;;;;5112086;28;20456;-71
2023/01/11 04:04:30;;;;;;;4.85;2.40;;;;;;;;;;5120789;27;20493;-71
2023/01/11 04:06:56;;;;;;;4.03;2.33;;;;;;;;;;5126098;27;20047;-72
2023/01/11 04:09:22;;;;;;;5.03;2.35;;;;;;;;;;5118094;27;20063;-70
2023/01/11 04:11:49;;;;;;;4.97;2.30;;;;;;;;;;5112716;28;20128;-71
2023/01/11 04:14:15;;;;;;;4.85;2.50;;;;;;;;;;5107161;28;20105;-71
2023/01/11 04:16:41;;;;;;;3.92;2.05;;;;;;;;;;5113232;28;20055;-72
2023/01/11 04:19:07;;;;;;;4.88;2.60;;;;;;;;;;5104153;27;20044;-71
2023/01/11 04:21:33;;;;;;;4.00;2.10;;;;;;;;;;5106663;27;20036;-71
2023/01/11 04:23:59;;;;;;;4.47;2.28;;;;;;;;;;5114214;28;20039;-71
2023/01/11 04:26:25;;;;;;;4.18;2.38;;;;;;;;;;5102548;28;20046;-71
2023/01/11 04:28:51;;;;;;;4.90;2.90;;;;;;;;;;5101831;28;20044;-71
2023/01/11 04:31:17;;;;;;;5.53;2.70;;;;;;;;;;5106236;28;20055;-71
2023/01/11 04:33:44;;;;;;;5.97;2.70;;;;;;;;;;5113571;27;20051;-71
2023/01/11 04:36:10;;;;;;;6.10;2.53;;;;;;;;;;5115614;27;20044;-71
2023/01/11 04:38:37;;;;;;;8.77;3.75;;;;;;;;;;5108439;27;20040;-71
2023/01/11 04:43:48;;;;;;;10.80;4.97;;;;;;;;;;5104631;28;20075;-71
2023/01/11 04:46:14;;;;;;;12.40;5.40;;;;;;;;;;5112631;28;20032;-71
2023/01/11 04:48:40;;;;;;;7.88;3.30;;;;;;;;;;5109002;28;20043;-71
2023/01/11 04:51:07;;;;;;;14.85;5.85;;;;;;;;;;5100679;27;20051;-71
2023/01/11 04:53:34;;;;;;;10.30;4.43;;;;;;;;;;5098661;28;20040;-71
2023/01/11 04:56:00;;;;;;;9.88;5.00;;;;;;;;;;5110633;28;20039;-70
2023/01/11 04:58:26;;;;;;;8.27;4.07;;;;;;;;;;5116047;28;20050;-72
2023/01/11 05:00:52;;;;;;;9.13;3.97;;;;;;;;;;5106158;28;20044;-71
2023/01/11 05:03:18;;;;;;;10.80;4.47;;;;;;;;;;5105340;28;20055;-71
2023/01/11 05:05:44;;;;;;;6.90;3.22;;;;;;;;;;5115652;28;20405;-71
2023/01/11 05:08:11;;;;;;;11.45;6.18;;;;;;;;;;5115894;28;20105;-71
2023/01/11 05:10:37;;;;;;;10.43;5.53;;;;;;;;;;5114649;28;20046;-71
2023/01/11 05:13:03;;;;;;;10.88;6.05;;;;;;;;;;5114292;28;20032;-71
2023/01/11 05:15:29;;;;;;;12.18;6.25;;;;;;;;;;5114476;28;20051;-71
2023/01/11 05:17:55;;;;;;;9.35;3.70;;;;;;;;;;5104720;28;20044;-71
2023/01/11 05:20:21;;;;;;;15.25;7.90;;;;;;;;;;5109944;28;20509;-71
2023/01/11 05:22:47;;;;;;;10.65;6.80;;;;;;;;;;5117178;27;20477;-71
2023/01/11 05:25:13;;;;;;;9.88;4.43;;;;;;;;;;5135925;27;20400;-71
2023/01/11 05:27:39;;;;;;;8.02;5.03;;;;;;;;;;5136035;27;20039;-71
2023/01/11 05:30:06;;;;;;;11.13;5.00;;;;;;;;;;5135965;27;20043;-71
2023/01/11 05:32:32;;;;;;;12.05;4.75;;;;;;;;;;5107468;27;20044;-71
2023/01/11 05:34:58;;;;;;;12.55;5.32;;;;;;;;;;5112942;27;20052;-71
2023/01/11 05:37:24;;;;;;;12.27;5.10;;;;;;;;;;5116488;27;20051;-71
2023/01/11 05:39:50;;;;;;;13.57;4.45;;;;;;;;;;5116294;27;20501;-71
2023/01/11 05:42:16;;;;;;;15.05;4.05;;;;;;;;;;5111827;28;20472;-70
2023/01/11 05:47:26;;;;;;;16.05;3.35;;;;;;;;;;5114432;27;20052;-71
2023/01/11 05:49:52;;;;;;;15.30;3.63;;;;;;;;;;5114890;28;20100;-71
2023/01/11 05:52:18;;;;;;;23.98;3.22;;;;;;;;;;5100016;28;20040;-71
2023/01/11 05:54:45;;;;;;;19.52;3.80;;;;;;;;;;5100364;28;20036;-71
2023/01/11 05:57:11;;;;;;;20.20;3.72;;;;;;;;;;5093060;28;20169;-72
2023/01/11 05:59:37;;;;;;;17.45;3.58;;;;;;;;;;5104400;28;20049;-71
2023/01/11 06:02:03;;;;;;;23.25;3.70;;;;;;;;;;5110432;28;20497;-71
2023/01/11 06:04:29;;;;;;;22.95;3.60;;;;;;;;;;5106812;28;20052;-71
2023/01/11 06:06:55;;;;;;;27.85;4.03;;;;;;;;;;5111651;27;20420;-71
2023/01/11 06:09:21;;;;;;;21.00;3.70;;;;;;;;;;5114380;27;20048;-71
2023/01/11 06:11:49;;;;;;;21.92;3.80;;;;;;;;;;5114529;28;20047;-71
2023/01/11 06:14:15;;;;;;;22.17;3.78;;;;;;;;;;5104601;27;20051;-71
2023/01/11 06:16:41;;;;;;;20.70;3.80;;;;;;;;;;5100997;28;20324;-71
2023/01/11 06:19:07;;;;;;;17.92;3.85;;;;;;;;;;5104905;28;20525;-71
2023/01/11 06:21:34;;;;;;;23.20;4.05;;;;;;;;;;5093562;28;20131;-71
2023/01/11 06:24:00;;;;;;;24.60;4.18;;;;;;;;;;5097978;27;20051;-71
2023/01/11 06:26:26;;;;;;;28.00;4.55;;;;;;;;;;5106401;28;20048;-71
2023/01/11 06:28:52;;;;;;;30.40;4.60;;;;;;;;;;5096908;28;20040;-71
2023/01/11 06:31:18;;;;;;;24.02;3.70;;;;;;;;;;5106265;28;20055;-71
2023/01/11 06:33:45;;;;;;;20.90;4.18;;;;;;;;;;5111841;28;20047;-72
2023/01/11 06:36:12;;;;;;;22.30;3.47;;;;;;;;;;5110116;28;20036;-71
2023/01/11 06:38:38;;;;;;;25.38;4.57;;;;;;;;;;5106932;27;20179;-71
2023/01/11 06:41:05;;;;;;;27.85;4.30;;;;;;;;;;5104417;28;20048;-72
2023/01/11 06:43:32;;;;;;;20.45;4.22;;;;;;;;;;5098231;28;20071;-72
2023/01/11 06:45:58;;;;;;;26.08;4.22;;;;;;;;;;5093633;28;20047;-72
2023/01/11 06:48:25;;;;;;;24.70;3.83;;;;;;;;;;5093732;28;20040;-71
2023/01/11 06:50:52;;;;;;;20.90;4.25;;;;;;;;;;5113717;28;20039;-71
2023/01/11 06:53:18;;;;;;;25.00;4.60;;;;;;;;;;5113719;28;20047;-72
2023/01/11 06:55:44;;;;;;;24.65;4.32;;;;;;;;;;5113746;28;20068;-72
2023/01/11 06:58:11;;;;;;;23.83;4.20;;;;;;;;;;5113572;28;20573;-72
2023/01/11 07:00:37;;;;;;;30.58;4.50;;;;;;;;;;5096607;28;20046;-71
2023/01/11 07:03:04;;;;;;;28.15;4.93;;;;;;;;;;5092343;28;20052;-71
2023/01/11 07:05:31;;;;;;;30.42;5.07;;;;;;;;;;5113702;28;20047;-71
2023/01/11 07:07:57;;;;;;;25.33;4.45;;;;;;;;;;5112493;28;20054;-72
2023/01/11 07:10:23;;;;;;;24.63;4.82;;;;;;;;;;5114844;28;20109;-72
2023/01/11 07:12:50;;;;;;;30.40;4.60;;;;;;;;;;5113708;28;20043;-72
2023/01/11 07:15:17;;;;;;;25.65;4.47;;;;;;;;;;5110421;28;20413;-71
2023/01/11 07:17:43;;;;;;;24.35;5.28;;;;;;;;;;5109046;28;20126;-72
2023/01/11 07:20:09;;;;;;;23.63;4.32;;;;;;;;;;5126673;27;20073;-71
2023/01/11 07:22:36;;;;;;;34.53;5.43;;;;;;;;;;5121136;27;20397;-72
2023/01/11 07:25:03;;;;;;;27.10;6.43;;;;;;;;;;5113775;28;20088;-73
2023/01/11 07:27:29;;;;;;;30.83;5.85;;;;;;;;;;5113695;28;20081;-75
2023/01/11 07:29:55;;;;;;;28.33;5.22;;;;;;;;;;5112144;28;20421;-74
2023/01/11 07:32:21;;;;;;;48.55;29.10;;;;;;;;;;5101448;28;20048;-72
2023/01/11 07:34:47;;;;;;;28.27;6.50;;;;;;;;;;5110520;28;20454;-75
2023/01/11 07:37:13;;;;;;;34.60;7.60;;;;;;;;;;5107764;28;20048;-73
2023/01/11 07:39:39;;;;;;;26.27;5.03;;;;;;;;;;5100890;28;20147;-71
2023/01/11 07:44:50;;;;;;;28.92;4.53;;;;;;;;;;5098510;28;20055;-71
2023/01/11 07:47:16;;;;;;;23.13;4.72;;;;;;;;;;5106514;28;20044;-71
2023/01/11 07:49:42;;;;;;;31.77;5.03;;;;;;;;;;5110544;28;20036;-71
2023/01/11 07:52:08;;;;;;;28.65;4.85;;;;;;;;;;5108444;28;20040;-72
2023/01/11 07:54:34;;;;;;;30.20;8.52;;;;;;;;;;5111975;28;20398;-72
2023/01/11 07:57:00;;;;;;;34.17;5.75;;;;;;;;;;5109147;28;20409;-72
2023/01/11 07:59:26;;;;;;;28.15;4.30;;;;;;;;;;5112503;28;20052;-72
2023/01/11 08:01:52;;;;;;;31.00;4.68;;;;;;;;;;5108288;28;20047;-70
2023/01/11 08:04:18;;;;;;;28.88;4.82;;;;;;;;;;5105489;28;20055;-72
2023/01/11 08:06:44;;;;;;;31.75;4.82;;;;;;;;;;5107870;28;20088;-71
2023/01/11 08:09:11;;;;;;;34.03;5.53;;;;;;;;;;5109621;28;20496;-72
2023/01/11 08:14:40;;;;;;;29.10;5.03;;;;;;;;;;5116472;28;20075;-71
2023/01/11 08:17:06;;;;;;;34.65;5.43;;;;;;;;;;5104846;28;20032;-72
2023/01/11 08:19:32;;;;;;;30.67;4.75;;;;;;;;;;5099113;28;20414;-71
2023/01/11 08:21:58;;;;;;;21.95;4.40;;;;;;;;;;5100237;28;20067;-71
2023/01/11 08:24:25;;;;;;;26.63;4.43;;;;;;;;;;5106786;28;20117;-71
2023/01/11 08:26:51;;;;;;;23.17;4.47;;;;;;;;;;5109043;28;20052;-72
2023/01/11 08:29:18;;;;;;;22.98;4.25;;;;;;;;;;5113187;28;20051;-72
2023/01/11 08:31:45;;;;;;;21.08;3.40;;;;;;;;;;5113399;28;20054;-72
2023/01/11 08:34:11;;;;;;;20.35;3.20;;;;;;;;;;5113898;28;20052;-71
2023/01/11 08:36:37;;;;;;;20.45;3.55;;;;;;;;;;5114431;28;20039;-71
2023/01/11 08:39:03;;;;;;;21.30;3.40;;;;;;;;;;5114763;28;20115;-72
2023/01/11 08:41:31;;;;;;;21.05;3.30;;;;;;;;;;5114797;28;20047;-71
2023/01/11 08:43:57;;;;;;;23.42;3.65;;;;;;;;;;5114387;28;20047;-71
2023/01/11 08:46:24;;;;;;;23.50;3.40;;;;;;;;;;5111325;28;20481;-72
2023/01/11 08:48:51;;;;;;;22.98;3.30;;;;;;;;;;5115223;28;20539;-71
2023/01/11 08:51:17;;;;;;;19.58;3.45;;;;;;;;;;5114685;28;20382;-72
2023/01/11 08:53:43;;;;;;;24.95;3.70;;;;;;;;;;5103905;27;20048;-72
2023/01/11 08:56:09;;;;;;;16.45;3.00;;;;;;;;;;5113879;28;20050;-72
2023/01/11 08:58:35;;;;;;;25.13;3.72;;;;;;;;;;5115013;28;20044;-72
2023/01/11 09:01:02;;;;;;;18.90;2.78;;;;;;;;;;5113683;28;20048;-73
2023/01/11 09:03:29;;;;;;;19.42;3.05;;;;;;;;;;5113286;28;20086;-72
2023/01/11 09:05:55;;;;;;;20.38;2.83;;;;;;;;;;5106042;28;20048;-71
2023/01/11 09:08:22;;;;;;;17.33;2.75;;;;;;;;;;5105898;28;20047;-71
2023/01/11 09:10:48;;;;;;;16.10;2.92;;;;;;;;;;5113594;28;20085;-72
2023/01/11 09:13:14;;;;;;;22.30;3.28;;;;;;;;;;5111249;28;20052;-72
2023/01/11 09:15:40;;;;;;;18.92;2.80;;;;;;;;;;5112615;28;20507;-73
2023/01/11 09:18:06;;;;;;;14.93;3.17;;;;;;;;;;5112986;28;20401;-73
2023/01/11 09:20:32;;;;;;;14.13;2.70;;;;;;;;;;5112980;28;20048;-71
2023/01/11 09:22:58;;;;;;;14.75;2.25;;;;;;;;;;5110482;28;20036;-73
2023/01/11 09:25:24;;;;;;;13.57;2.38;;;;;;;;;;5113637;28;20054;-72
2023/01/11 09:27:51;;;;;;;15.93;2.90;;;;;;;;;;5113377;28;20545;-72
2023/01/11 09:30:21;;;;;;;14.55;2.78;;;;;;;;;;5110684;27;20425;-72
2023/01/11 09:32:48;;;;;;;21.08;3.00;;;;;;;;;;5110937;28;20044;-71
2023/01/11 09:35:15;;;;;;;15.65;2.40;;;;;;;;;;5109992;28;20506;-70
2023/01/11 09:37:44;;;;;;;14.68;2.47;;;;;;;;;;5111293;28;20093;-72
2023/01/11 09:40:17;;;;;;;15.77;3.38;;;;;;;;;;5110429;28;20196;-72
2023/01/11 09:42:45;;;;;;;19.15;3.15;;;;;;;;;;5100155;27;20586;-71
2023/01/11 09:45:13;;;;;;;18.85;2.45;;;;;;;;;;5114533;27;20043;-71
2023/01/11 09:47:44;;;;;;;15.05;2.63;;;;;;;;;;5112493;28;20414;-71
2023/01/11 09:50:14;;;;;;;13.75;2.60;;;;;;;;;;5113224;28;20493;-74
2023/01/11 09:52:42;;;;;;;18.58;2.67;;;;;;;;;;5110479;28;20474;-74
2023/01/11 09:55:22;;;;;;;15.80;2.30;;;;;;;;;;5102166;28;20044;-72
2023/01/11 09:58:01;;;;;;;23.13;3.30;;;;;;;;;;5098692;28;20043;-72
2023/01/11 10:00:32;;;;;;;18.60;2.88;;;;;;;;;;5131590;27;20043;-73
2023/01/11 10:03:14;;;;;;;22.20;2.95;;;;;;;;;;5123643;27;20173;-73
2023/01/11 10:05:40;;;;;;;;;;;;;;;;;;5109457;28;20051;-74
2023/01/11 10:08:14;;;;;;;22.23;6.22;;;;;;;;;;5113740;28;19920;-72
2023/01/11 10:10:50;;;;;;;19.95;5.88;;;;;;;;;;5113832;28;20047;-71
2023/01/11 10:13:26;;;;;;;26.92;4.20;;;;;;;;;;5109295;28;20106;-72
2023/01/11 10:15:58;;;;;;;19.83;5.50;;;;;;;;;;5106653;28;20040;-71
2023/01/11 10:18:38;;;;;;;21.67;4.80;;;;;;;;;;5107417;28;20048;-71
2023/01/11 10:21:08;;;;;;;14.85;2.70;;;;;;;;;;5101780;27;20402;-71
2023/01/11 10:23:54;;;;;;;20.67;3.47;;;;;;;;;;5105053;28;20135;-70
2023/01/11 10:26:28;;;;;;;23.63;3.70;;;;;;;;;;5117474;27;20363;-71
2023/01/11 10:32:12;;;;;;;20.95;3.58;;;;;;;;;;5108047;27;20057;-70
2023/01/11 10:41:03;;;;;;;18.63;3.45;;;;;;;;;;5047992;28;20008;-71
2023/01/11 10:43:36;;;;;;;19.08;3.90;;;;;;;;;;5049178;28;20076;-71
2023/01/11 10:46:07;;;;;;;22.42;4.90;;;;;;;;;;5049376;28;20113;-72
2023/01/11 10:48:35;;;;;;;21.95;3.45;;;;;;;;;;5049783;28;20064;-71
2023/01/11 10:51:07;;;;;;;27.88;6.50;;;;;;;;;;5048289;28;20055;-71
2023/01/11 10:53:38;;;;;;;23.20;3.92;;;;;;;;;;5041847;28;20547;-72
2023/01/11 10:56:10;;;;;;;23.02;4.05;;;;;;;;;;5047665;28;20049;-71
2023/01/11 10:58:39;;;;;;;21.17;3.72;;;;;;;;;;5060531;28;20044;-71
2023/01/11 11:01:17;;;;;;;23.52;4.28;;;;;;;;;;5048842;28;20068;-71
2023/01/11 11:03:52;;;;;;;25.95;4.18;;;;;;;;;;5048637;28;20057;-71
2023/01/11 11:06:21;;;;;;;20.85;3.70;;;;;;;;;;5047319;28;20470;-71
2023/01/11 11:08:50;;;;;;;19.17;3.70;;;;;;;;;;5031666;28;20061;-71
2023/01/11 11:11:21;;;;;;;20.95;3.67;;;;;;;;;;5056316;28;20479;-71
2023/01/11 11:14:08;;;;;;;16.63;3.75;;;;;;;;;;5075330;28;20051;-71
2023/01/11 11:16:35;;;;;;;16.42;4.10;;;;;;;;;;5104317;27;20053;-71
2023/01/11 11:19:01;;;;;;;18.92;3.72;;;;;;;;;;5101922;28;20075;-71
2023/01/11 11:21:33;;;;;;;17.20;4.05;;;;;;;;;;5113843;27;20047;-71
2023/01/11 11:24:05;;;;;;;18.13;3.58;;;;;;;;;;5104284;27;20047;-72
2023/01/11 11:26:40;;;;;;;17.88;3.70;;;;;;;;;;5108037;28;20115;-74
2023/01/11 11:29:11;;;;;;;21.88;3.85;;;;;;;;;;5100896;28;20055;-71
2023/01/11 11:31:41;;;;;;;18.90;3.47;;;;;;;;;;5108669;28;20111;-71
2023/01/11 11:34:08;;;;;;;22.90;3.58;;;;;;;;;;5108344;28;20149;-71
2023/01/11 11:36:41;;;;;;;22.55;4.72;;;;;;;;;;5107695;28;20035;-71
2023/01/11 11:39:19;;;;;;;19.80;4.18;;;;;;;;;;5097822;28;20036;-71
2023/01/11 11:42:05;;;;;;;19.48;4.00;;;;;;;;;;5103134;28;20097;-71
2023/01/11 11:44:32;;;;;;;19.65;4.10;;;;;;;;;;5097398;28;20048;-71
2023/01/11 11:46:58;;;;;;;20.50;3.80;;;;;;;;;;5109469;27;20138;-71
2023/01/11 11:49:24;;;;;;;22.52;3.72;;;;;;;;;;5126575;27;20457;-71
2023/01/11 11:51:51;;;;;;;21.08;4.30;;;;;;;;;;5108530;27;20456;-72
2023/01/11 11:54:31;;;;;;;23.15;4.65;;;;;;;;;;5111559;28;20035;-70
2023/01/11 11:56:58;;;;;;;18.95;4.05;;;;;;;;;;5107839;27;20514;-72
2023/01/11 11:59:27;;;;;;;15.98;3.40;;;;;;;;;;5112059;27;20062;-70
2023/01/11 12:01:59;;;;;;;18.80;3.28;;;;;;;;;;5109372;28;20035;-72
2023/01/11 12:04:48;;;;;;;17.50;3.30;;;;;;;;;;5114843;28;20063;-71
2023/01/11 12:07:14;;;;;;;19.80;3.78;;;;;;;;;;5103921;28;20100;-71
2023/01/11 12:09:44;;;;;;;23.13;3.72;;;;;;;;;;5113831;28;20446;-71
2023/01/11 12:12:15;;;;;;;25.25;4.40;;;;;;;;;;5115154;27;20035;-71
2023/01/11 12:14:41;;;;;;;16.77;4.20;;;;;;;;;;5115887;28;20062;-71
2023/01/11 12:17:24;;;;;;;17.75;3.22;;;;;;;;;;5111403;28;20132;-71
2023/01/11 12:19:50;;;;;;;19.67;4.18;;;;;;;;;;5111243;28;20120;-71
2023/01/11 12:22:20;;;;;;;19.40;4.20;;;;;;;;;;5111689;28;20189;-71
2023/01/11 12:24:47;;;;;;;19.20;3.40;;;;;;;;;;5097793;28;20048;-71
2023/01/11 12:27:19;;;;;;;15.25;3.10;;;;;;;;;;5113421;28;20052;-71
2023/01/11 12:29:54;;;;;;;17.25;3.30;;;;;;;;;;5107747;28;20047;-71
2023/01/11 12:32:40;;;;;;;15.73;3.45;;;;;;;;;;5114069;28;20497;-72
2023/01/11 12:35:29;;;;;;;20.13;3.25;;;;;;;;;;5110753;28;20043;-72
2023/01/11 12:38:03;;;;;;;18.05;3.30;;;;;;;;;;5095031;28;20770;-73
2023/01/11 12:40:29;;;;;;;13.50;2.75;;;;;;;;;;5095406;28;20502;-73
2023/01/11 12:43:18;;;;;;;22.77;3.63;;;;;;;;;;5109164;28;20489;-71
2023/01/11 12:45:49;;;;;;;18.10;3.42;;;;;;;;;;5113248;28;20051;-72
2023/01/11 12:48:22;;;;;;;16.95;3.20;;;;;;;;;;5115211;28;20118;-73
2023/01/11 12:50:48;;;;;;;16.38;2.92;;;;;;;;;;5113356;28;20146;-72
2023/01/11 12:53:29;;;;;;;21.73;4.00;;;;;;;;;;5115408;28;20072;-73
2023/01/11 12:55:58;;;;;;;16.27;3.05;;;;;;;;;;5100028;28;20043;-72
2023/01/11 12:58:30;;;;;;;18.48;3.40;;;;;;;;;;5118605;27;20055;-72
2023/01/11 13:01:17;;;;;;;22.00;3.15;;;;;;;;;;5110659;27;20047;-72
2023/01/11 13:04:01;;;;;;;18.42;3.33;;;;;;;;;;5110751;27;20066;-72
2023/01/11 13:06:33;;;;;;;18.35;3.45;;;;;;;;;;5118676;27;20051;-72
2023/01/11 13:09:06;;;;;;;16.52;4.45;;;;;;;;;;5112351;28;20458;-72
2023/01/11 13:11:47;;;;;;;22.52;4.13;;;;;;;;;;5106042;28;20047;-72
2023/01/11 13:14:31;;;;;;;21.77;3.58;;;;;;;;;;5111010;28;20054;-73
2023/01/11 13:17:03;;;;;;;20.65;3.70;;;;;;;;;;5114699;28;20047;-72
2023/01/11 13:19:40;;;;;;;22.30;4.05;;;;;;;;;;5111251;28;20405;-73
2023/01/11 13:22:11;;;;;;;20.75;3.53;;;;;;;;;;5112148;27;20048;-73
2023/01/11 13:24:38;;;;;;;;;;;;;;;;;;5125509;27;20117;-73
2023/01/11 13:27:06;;;;;;;20.00;3.30;;;;;;;;;;5114762;28;19926;-73
2023/01/11 13:29:34;;;;;;;21.70;3.67;;;;;;;;;;5116329;27;20122;-73
2023/01/11 13:32:03;;;;;;;18.88;3.42;;;;;;;;;;5113958;28;20043;-73
2023/01/11 13:34:40;;;;;;;24.90;4.65;;;;;;;;;;5114596;28;20046;-73
2023/01/11 13:37:08;;;;;;;22.90;3.33;;;;;;;;;;5114616;28;20110;-73
2023/01/11 13:39:42;;;;;;;25.15;4.57;;;;;;;;;;5114377;27;20051;-73
2023/01/11 13:42:14;;;;;;;20.90;3.38;;;;;;;;;;5115108;28;20044;-73
2023/01/11 13:44:47;;;;;;;22.55;3.78;;;;;;;;;;5093912;28;20121;-73
2023/01/11 13:47:23;;;;;;;20.35;3.80;;;;;;;;;;5106494;28;20043;-73
2023/01/11 13:50:02;;;;;;;21.40;3.25;;;;;;;;;;5102629;28;20064;-73
2023/01/11 13:52:28;;;;;;;19.35;3.38;;;;;;;;;;5111476;28;20108;-73
2023/01/11 13:55:09;;;;;;;22.55;3.75;;;;;;;;;;5113675;28;20043;-73
2023/01/11 13:57:35;;;;;;;;;;;;;;;;;;5113314;28;20108;-73
2023/01/11 14:00:16;;;;;;;17.23;3.20;;;;;;;;;;5111422;28;19981;-73
2023/01/11 14:02:46;;;;;;;21.03;5.20;;;;;;;;;;5106626;27;20044;-73
2023/01/11 14:05:17;;;;;;;26.67;3.40;;;;;;;;;;5106708;27;20346;-73
2023/01/11 14:07:43;;;;;;;;;;;;;;;;;;5100921;27;20059;-73
2023/01/11 14:10:28;;;;;;;18.92;2.97;;;;;;;;;;5110100;28;19919;-73
2023/01/11 14:13:03;;;;;;;17.00;3.78;;;;;;;;;;5114328;28;20056;-73
2023/01/11 14:15:32;;;;;;;18.88;3.88;;;;;;;;;;5112857;28;20047;-73
2023/01/11 14:18:07;;;;;;;16.83;3.10;;;;;;;;;;5109235;28;20054;-79
2023/01/11 14:20:33;;;;;;;19.65;5.10;;;;;;;;;;5112217;28;20496;-73
2023/01/11 14:22:59;;;;;;;27.17;4.10;;;;;;;;;;5113057;27;20044;-75
2023/01/11 14:25:25;;;;;;;19.35;3.92;;;;;;;;;;5094065;28;20051;-74
2023/01/11 14:28:07;;;;;;;23.95;3.75;;;;;;;;;;5133394;27;20043;-73
2023/01/11 14:30:36;;;;;;;21.52;4.45;;;;;;;;;;5101830;28;20039;-73
2023/01/11 14:33:05;;;;;;;15.23;3.80;;;;;;;;;;5117378;27;20048;-73
2023/01/11 14:35:50;;;;;;;18.95;3.25;;;;;;;;;;5113050;27;20047;-73
2023/01/11 14:38:34;;;;;;;20.98;3.40;;;;;;;;;;5117740;27;20043;-74
2023/01/11 14:41:00;;;;;;;21.02;3.80;;;;;;;;;;5111231;28;20134;-73
2023/01/11 14:43:38;;;;;;;17.48;3.25;;;;;;;;;;5110910;28;20106;-71
2023/01/11 14:46:14;;;;;;;20.92;3.03;;;;;;;;;;5106246;28;20048;-73
2023/01/11 14:48:43;;;;;;;20.52;3.92;;;;;;;;;;5111738;28;20550;-74
2023/01/11 14:51:20;;;;;;;20.08;3.80;;;;;;;;;;5112898;28;20039;-74
2023/01/11 14:53:51;;;;;;;23.75;4.40;;;;;;;;;;5104566;28;20044;-73
2023/01/11 14:56:35;;;;;;;23.25;3.95;;;;;;;;;;5110849;28;20056;-73
2023/01/11 14:59:03;;;;;;;21.02;3.50;;;;;;;;;;5110279;28;20039;-72
2023/01/11 15:01:46;;;;;;;22.33;6.68;;;;;;;;;;5108445;28;20089;-72
2023/01/11 15:04:21;;;;;;;24.20;8.57;;;;;;;;;;5109385;28;20405;-72
2023/01/11 15:06:54;;;;;;;18.88;5.38;;;;;;;;;;5094764;28;20067;-72
2023/01/11 15:09:38;;;;;;;20.40;6.03;;;;;;;;;;5092259;28;20048;-72
2023/01/11 15:12:14;;;;;;;21.98;3.65;;;;;;;;;;5100829;28;20070;-73
2023/01/11 15:14:46;;;;;;;18.40;5.03;;;;;;;;;;5111322;28;20047;-72
2023/01/11 15:20:08;;;;;;;22.58;5.35;;;;;;;;;;5098714;28;20043;-73
2023/01/11 15:22:34;;;;;;;24.05;4.53;;;;;;;;;;5112475;27;20111;-74
2023/01/11 15:25:02;;;;;;;20.35;4.00;;;;;;;;;;5113608;28;20078;-73
2023/01/11 15:27:32;;;;;;;27.05;4.15;;;;;;;;;;5108761;28;20043;-73